createdAt,value
2018-06-23T00:00:53.005Z,87.00
2018-06-23T00:01:52.998Z,87.09
2018-06-23T00:02:52.993Z,87.00
2018-06-23T00:03:52.985Z,87.29
2018-06-23T00:04:52.982Z,87.29
2018-06-23T00:05:52.979Z,87.00
2018-06-23T00:06:52.979Z,87.29
2018-06-23T00:07:52.975Z,87.09
2018-06-23T00:08:52.969Z,87.48
2018-06-23T00:09:52.966Z,87.29
2018-06-23T00:10:52.958Z,88.15
2018-06-23T00:11:52.952Z,88.15
2018-06-23T00:12:52.955Z,88.15
2018-06-23T00:13:52.950Z,88.05
2018-06-23T00:14:52.945Z,88.34
2018-06-23T00:15:52.937Z,88.10
2018-06-23T00:16:52.933Z,87.62
2018-06-23T00:17:52.929Z,88.01
2018-06-23T00:18:52.931Z,87.82
2018-06-23T00:19:52.926Z,87.91
2018-06-23T00:20:52.969Z,88.01
2018-06-23T00:21:52.917Z,87.82
2018-06-23T00:22:52.914Z,88.39
2018-06-23T00:23:52.903Z,87.82
2018-06-23T00:24:52.900Z,88.96
2018-06-23T00:25:52.895Z,88.77
2018-06-23T00:26:52.896Z,89.20
2018-06-23T00:27:52.891Z,89.11
2018-06-23T00:28:52.882Z,89.11
2018-06-23T00:29:52.877Z,89.49
2018-06-23T00:30:52.878Z,89.11
2018-06-23T00:31:52.872Z,89.78
2018-06-23T00:32:52.870Z,89.68
2018-06-23T00:33:52.865Z,89.68
2018-06-23T00:34:52.856Z,90.16
2018-06-23T00:35:52.851Z,89.68
2018-06-23T00:36:52.849Z,90.25
2018-06-23T00:37:52.843Z,90.45
2018-06-23T00:38:52.843Z,90.64
2018-06-23T00:39:52.838Z,90.83
2018-06-23T00:40:52.837Z,90.64
2018-06-23T00:41:52.830Z,91.30
2018-06-23T00:42:52.821Z,90.92
2018-06-23T00:43:52.814Z,90.73
2018-06-23T00:44:52.816Z,91.02
2018-06-23T00:45:52.816Z,90.69
2018-06-23T00:46:52.801Z,91.50
2018-06-23T00:47:52.797Z,90.59
2018-06-23T00:48:52.791Z,91.36
2018-06-23T00:49:52.787Z,91.16
2018-06-23T00:50:52.788Z,91.64
2018-06-23T00:51:52.781Z,91.74
2018-06-23T00:52:52.777Z,91.64
2018-06-23T00:53:52.772Z,91.36
2018-06-23T00:54:52.763Z,91.45
2018-06-23T00:55:52.758Z,91.45
2018-06-23T00:56:52.753Z,92.02
2018-06-23T00:57:52.749Z,92.02
2018-06-23T00:58:52.750Z,92.12
2018-06-23T00:59:52.744Z,92.12
2018-06-23T01:00:52.735Z,91.93
2018-06-23T01:01:52.729Z,91.83
2018-06-23T01:02:52.729Z,92.21
2018-06-23T01:03:52.724Z,92.21
2018-06-23T01:04:52.719Z,92.31
2018-06-23T01:05:52.713Z,92.60
2018-06-23T01:06:52.705Z,92.12
2018-06-23T01:07:52.699Z,92.02
2018-06-23T01:08:52.695Z,92.12
2018-06-23T01:09:52.692Z,92.50
2018-06-23T01:10:52.689Z,92.65
2018-06-23T01:11:52.683Z,92.36
2018-06-23T01:12:52.680Z,92.65
2018-06-23T01:13:52.675Z,92.60
2018-06-23T01:14:52.666Z,92.74
2018-06-23T01:15:52.659Z,92.55
2018-06-23T01:16:52.662Z,93.60
2018-06-23T01:17:52.654Z,93.12
2018-06-23T01:18:52.644Z,93.12
2018-06-23T01:19:52.639Z,93.12
2018-06-23T01:20:52.635Z,93.41
2018-06-23T01:21:52.629Z,93.31
2018-06-23T01:22:52.629Z,93.79
2018-06-23T01:23:52.622Z,93.88
2018-06-23T01:24:52.618Z,93.88
2018-06-23T01:25:52.613Z,93.88
2018-06-23T01:26:52.603Z,93.70
2018-06-23T01:27:52.598Z,93.41
2018-06-23T01:28:52.594Z,93.79
2018-06-23T01:29:52.588Z,93.51
2018-06-23T01:30:52.589Z,93.51
2018-06-23T01:31:52.582Z,93.70
2018-06-23T01:32:52.573Z,93.70
2018-06-23T01:33:52.569Z,93.70
2018-06-23T01:34:52.568Z,93.60
2018-06-23T01:35:52.561Z,93.31
2018-06-23T01:36:52.556Z,93.60
2018-06-23T01:37:52.550Z,93.51
2018-06-23T01:38:52.541Z,93.60
2018-06-23T01:39:52.536Z,93.88
2018-06-23T01:40:52.531Z,93.60
2018-06-23T01:41:52.527Z,93.88
2018-06-23T01:42:52.528Z,93.60
2018-06-23T01:43:52.522Z,94.46
2018-06-23T01:44:52.515Z,94.36
2018-06-23T01:45:52.509Z,94.65
2018-06-23T01:46:52.499Z,94.36
2018-06-23T01:47:52.494Z,94.36
2018-06-23T01:48:52.494Z,94.36
2018-06-23T01:49:52.489Z,95.03
2018-06-23T01:50:52.485Z,95.51
2018-06-23T01:51:52.473Z,95.46
2018-06-23T01:52:52.468Z,95.37
2018-06-23T01:53:52.462Z,94.93
2018-06-23T01:54:52.505Z,95.22
2018-06-23T01:55:52.457Z,95.56
2018-06-23T01:56:52.452Z,95.79
2018-06-23T01:57:52.446Z,95.56
2018-06-23T01:58:52.436Z,95.46
2018-06-23T01:59:52.430Z,95.56
2018-06-23T02:00:52.424Z,95.84
2018-06-23T02:01:52.419Z,96.13
2018-06-23T02:02:52.419Z,95.94
2018-06-23T02:03:52.413Z,95.84
2018-06-23T02:04:52.403Z,96.03
2018-06-23T02:05:52.398Z,95.84
2018-06-23T02:06:52.398Z,95.84
2018-06-23T02:07:52.390Z,96.41
2018-06-23T02:08:52.388Z,96.61
2018-06-23T02:09:52.381Z,96.70
2018-06-23T02:10:52.371Z,96.80
2018-06-23T02:11:52.364Z,96.70
2018-06-23T02:12:52.365Z,96.32
2018-06-23T02:13:52.357Z,96.70
2018-06-23T02:14:52.354Z,96.41
2018-06-23T02:15:52.347Z,96.51
2018-06-23T02:16:52.341Z,96.98
2018-06-23T02:17:52.338Z,97.17
2018-06-23T02:18:52.327Z,97.08
2018-06-23T02:19:52.320Z,97.08
2018-06-23T02:20:52.319Z,96.98
2018-06-23T02:21:52.314Z,96.98
2018-06-23T02:22:52.304Z,96.61
2018-06-23T02:23:52.298Z,96.98
2018-06-23T02:24:52.296Z,96.32
2018-06-23T02:25:52.289Z,97.08
2018-06-23T02:26:52.288Z,96.61
2018-06-23T02:27:52.282Z,96.51
2018-06-23T02:28:52.277Z,96.80
2018-06-23T02:29:52.271Z,96.61
2018-06-23T02:30:52.260Z,96.70
2018-06-23T02:31:52.254Z,96.32
2018-06-23T02:32:52.251Z,97.08
2018-06-23T02:33:52.243Z,96.98
2018-06-23T02:34:52.242Z,96.98
2018-06-23T02:35:52.237Z,96.41
2018-06-23T02:36:52.226Z,96.51
2018-06-23T02:37:52.224Z,96.61
2018-06-23T02:38:52.220Z,96.98
2018-06-23T02:39:52.215Z,97.08
2018-06-23T02:40:52.209Z,96.98
2018-06-23T02:41:52.204Z,96.89
2018-06-23T02:42:52.193Z,96.61
2018-06-23T02:43:52.188Z,96.89
2018-06-23T02:44:52.187Z,97.08
2018-06-23T02:45:52.181Z,96.41
2018-06-23T02:46:52.174Z,96.32
2018-06-23T02:47:52.165Z,96.80
2018-06-23T02:48:52.159Z,97.08
2018-06-23T02:49:52.154Z,96.61
2018-06-23T02:50:52.154Z,96.89
2018-06-23T02:51:52.152Z,96.89
2018-06-23T02:52:52.137Z,97.08
2018-06-23T02:53:52.132Z,96.80
2018-06-23T02:54:52.132Z,96.98
2018-06-23T02:55:52.127Z,96.80
2018-06-23T02:56:52.119Z,97.08
2018-06-23T02:57:52.115Z,96.80
2018-06-23T02:58:52.105Z,97.27
2018-06-23T02:59:52.099Z,97.08
2018-06-23T03:00:52.093Z,96.80
2018-06-23T03:01:52.088Z,96.80
2018-06-23T03:02:52.087Z,96.89
2018-06-23T03:03:52.080Z,97.08
2018-06-23T03:04:52.076Z,97.27
2018-06-23T03:05:52.070Z,96.84
2018-06-23T03:06:52.065Z,97.51
2018-06-23T03:07:52.055Z,97.56
2018-06-23T03:08:52.054Z,97.51
2018-06-23T03:09:52.048Z,97.27
2018-06-23T03:10:52.040Z,97.61
2018-06-23T03:11:52.032Z,97.03
2018-06-23T03:12:52.027Z,96.94
2018-06-23T03:13:52.020Z,96.75
2018-06-23T03:14:52.020Z,96.94
2018-06-23T03:15:52.016Z,96.75
2018-06-23T03:16:52.008Z,97.22
2018-06-23T03:17:52.002Z,96.84
2018-06-23T03:18:51.993Z,97.03
2018-06-23T03:19:51.986Z,97.13
2018-06-23T03:20:51.981Z,97.61
2018-06-23T03:21:51.975Z,97.32
2018-06-23T03:22:51.974Z,97.22
2018-06-23T03:23:51.968Z,97.41
2018-06-23T03:24:51.957Z,97.41
2018-06-23T03:25:51.952Z,97.41
2018-06-23T03:26:51.952Z,97.61
2018-06-23T03:27:51.947Z,97.80
2018-06-23T03:28:51.939Z,97.32
2018-06-23T03:29:51.933Z,97.41
2018-06-23T03:30:51.924Z,97.03
2018-06-23T03:31:51.917Z,97.13
2018-06-23T03:32:51.912Z,97.03
2018-06-23T03:33:51.907Z,97.61
2018-06-23T03:34:51.905Z,97.61
2018-06-23T03:35:51.903Z,97.13
2018-06-23T03:36:51.895Z,97.80
2018-06-23T03:37:51.889Z,97.61
2018-06-23T03:38:51.879Z,97.32
2018-06-23T03:39:51.873Z,97.51
2018-06-23T03:40:51.872Z,97.03
2018-06-23T03:41:51.866Z,97.13
2018-06-23T03:42:51.855Z,97.22
2018-06-23T03:43:51.941Z,97.41
2018-06-23T03:44:51.843Z,97.13
2018-06-23T03:45:51.837Z,97.61
2018-06-23T03:46:51.836Z,97.61
2018-06-23T03:47:51.830Z,97.89
2018-06-23T03:48:51.829Z,97.41
2018-06-23T03:49:51.821Z,97.32
2018-06-23T03:50:51.810Z,97.80
2018-06-23T03:51:51.804Z,97.80
2018-06-23T03:52:51.798Z,97.80
2018-06-23T03:53:51.792Z,97.89
2018-06-23T03:54:51.792Z,97.51
2018-06-23T03:55:51.785Z,97.51
2018-06-23T03:56:51.777Z,97.41
2018-06-23T03:57:51.770Z,97.22
2018-06-23T03:58:51.768Z,97.51
2018-06-23T03:59:51.763Z,96.94
2018-06-23T04:00:51.757Z,97.51
2018-06-23T04:01:51.751Z,97.51
2018-06-23T04:02:51.742Z,97.41
2018-06-23T04:03:51.735Z,97.61
2018-06-23T04:04:51.730Z,97.70
2018-06-23T04:05:51.724Z,97.51
2018-06-23T04:06:51.724Z,97.80
2018-06-23T04:07:51.717Z,97.51
2018-06-23T04:08:51.711Z,97.13
2018-06-23T04:09:51.706Z,97.32
2018-06-23T04:10:51.696Z,97.22
2018-06-23T04:11:51.693Z,97.22
2018-06-23T04:12:51.689Z,97.13
2018-06-23T04:13:51.683Z,97.32
2018-06-23T04:14:51.673Z,97.51
2018-06-23T04:15:51.669Z,97.32
2018-06-23T04:16:51.720Z,97.03
2018-06-23T04:17:51.657Z,97.66
2018-06-23T04:18:51.656Z,97.41
2018-06-23T04:19:51.649Z,97.17
2018-06-23T04:20:51.643Z,97.37
2018-06-23T04:21:51.638Z,96.98
2018-06-23T04:22:51.628Z,97.37
2018-06-23T04:23:51.621Z,97.27
2018-06-23T04:24:51.616Z,96.98
2018-06-23T04:25:51.611Z,97.94
2018-06-23T04:26:51.610Z,97.46
2018-06-23T04:27:51.606Z,97.85
2018-06-23T04:28:51.594Z,97.46
2018-06-23T04:29:51.590Z,97.66
2018-06-23T04:30:51.589Z,96.98
2018-06-23T04:31:51.582Z,97.51
2018-06-23T04:32:51.577Z,96.75
2018-06-23T04:33:51.573Z,96.56
2018-06-23T04:34:51.564Z,96.37
2018-06-23T04:35:51.557Z,96.75
2018-06-23T04:36:51.552Z,96.08
2018-06-23T04:37:51.549Z,96.08
2018-06-23T04:38:51.549Z,95.70
2018-06-23T04:39:51.542Z,95.03
2018-06-23T04:40:51.537Z,95.17
2018-06-23T04:41:51.532Z,95.56
2018-06-23T04:42:51.522Z,94.98
2018-06-23T04:43:51.517Z,94.51
2018-06-23T04:44:51.516Z,94.51
2018-06-23T04:45:51.513Z,93.93
2018-06-23T04:46:51.503Z,93.79
2018-06-23T04:47:51.497Z,93.60
2018-06-23T04:48:51.493Z,93.84
2018-06-23T04:49:51.488Z,93.31
2018-06-23T04:50:51.490Z,93.02
2018-06-23T04:51:51.483Z,92.45
2018-06-23T04:52:51.478Z,92.64
2018-06-23T04:53:51.481Z,92.36
2018-06-23T04:54:51.466Z,92.07
2018-06-23T04:55:51.460Z,92.45
2018-06-23T04:56:51.456Z,92.36
2018-06-23T04:57:51.452Z,92.36
2018-06-23T04:58:51.453Z,92.07
2018-06-23T04:59:51.448Z,92.64
2018-06-23T05:00:51.438Z,92.07
2018-06-23T05:01:51.434Z,91.97
2018-06-23T05:02:51.435Z,92.07
2018-06-23T05:03:51.430Z,91.88
2018-06-23T05:04:51.426Z,91.88
2018-06-23T05:05:51.421Z,91.88
2018-06-23T05:06:51.413Z,91.97
2018-06-23T05:07:51.407Z,92.16
2018-06-23T05:08:51.404Z,91.50
2018-06-23T05:09:51.399Z,91.45
2018-06-23T05:10:51.401Z,91.35
2018-06-23T05:11:51.396Z,91.64
2018-06-23T05:12:51.392Z,90.78
2018-06-23T05:13:51.387Z,90.68
2018-06-23T05:14:51.381Z,90.59
2018-06-23T05:15:51.375Z,90.30
2018-06-23T05:16:51.377Z,90.30
2018-06-23T05:17:51.371Z,90.53
2018-06-23T05:18:51.365Z,90.34
2018-06-23T05:19:51.361Z,89.96
2018-06-23T05:20:51.356Z,89.87
2018-06-23T05:21:51.351Z,89.77
2018-06-23T05:22:51.355Z,89.67
2018-06-23T05:23:51.347Z,89.96
2018-06-23T05:24:51.344Z,89.10
2018-06-23T05:25:51.352Z,89.15
2018-06-23T05:26:51.332Z,89.24
2018-06-23T05:27:51.331Z,88.53
2018-06-23T05:28:51.326Z,88.76
2018-06-23T05:29:51.322Z,89.01
2018-06-23T05:30:51.324Z,88.29
2018-06-23T05:31:51.330Z,88.57
2018-06-23T05:32:51.311Z,88.24
2018-06-23T05:33:51.308Z,88.43
2018-06-23T05:34:51.310Z,88.62
2018-06-23T05:35:51.305Z,88.43
2018-06-23T05:36:51.300Z,88.81
2018-06-23T05:37:51.364Z,89.29
2018-06-23T05:38:51.290Z,89.20
2018-06-23T05:39:51.286Z,89.10
2018-06-23T05:40:51.282Z,89.20
2018-06-23T05:41:51.279Z,89.29
2018-06-23T05:42:51.280Z,89.48
2018-06-23T05:43:51.275Z,89.58
2018-06-23T05:44:51.307Z,89.58
2018-06-23T05:45:51.269Z,90.39
2018-06-23T05:46:51.261Z,89.58
2018-06-23T05:47:51.256Z,89.92
2018-06-23T05:48:51.258Z,89.53
2018-06-23T05:49:51.254Z,90.16
2018-06-23T05:50:51.247Z,90.16
2018-06-23T05:51:51.264Z,90.53
2018-06-23T05:52:51.238Z,90.20
2018-06-23T05:53:51.235Z,90.39
2018-06-23T05:54:51.236Z,90.30
2018-06-23T05:55:51.232Z,90.49
2018-06-23T05:56:51.228Z,90.49
2018-06-23T05:57:51.226Z,90.59
2018-06-23T05:58:51.221Z,90.82
2018-06-23T05:59:51.212Z,90.92
2018-06-23T06:00:51.208Z,90.88
2018-06-23T06:01:51.205Z,90.92
2018-06-23T06:02:51.205Z,90.82
2018-06-23T06:03:51.204Z,91.02
2018-06-23T06:04:51.196Z,91.02
2018-06-23T06:05:51.189Z,90.92
2018-06-23T06:06:51.191Z,90.73
2018-06-23T06:07:51.186Z,90.63
2018-06-23T06:08:51.183Z,91.30
2018-06-23T06:09:51.180Z,90.06
2018-06-23T06:10:51.173Z,90.73
2018-06-23T06:11:51.167Z,90.63
2018-06-23T06:12:51.167Z,90.53
2018-06-23T06:13:51.165Z,90.63
2018-06-23T06:14:51.182Z,90.44
2018-06-23T06:15:51.158Z,89.77
2018-06-23T06:16:51.154Z,90.25
2018-06-23T06:17:51.150Z,90.06
2018-06-23T06:18:51.144Z,90.16
2018-06-23T06:19:51.136Z,90.16
2018-06-23T06:20:51.144Z,90.16
2018-06-23T06:21:51.136Z,90.25
2018-06-23T06:22:51.128Z,89.96
2018-06-23T06:23:51.150Z,90.44
2018-06-23T06:24:51.120Z,90.53
2018-06-23T06:25:51.117Z,90.25
2018-06-23T06:26:51.120Z,90.44
2018-06-23T06:27:51.115Z,91.11
2018-06-23T06:28:51.111Z,91.68
2018-06-23T06:29:51.109Z,91.68
2018-06-23T06:30:51.100Z,91.39
2018-06-23T06:31:51.096Z,91.88
2018-06-23T06:32:51.092Z,92.07
2018-06-23T06:33:51.090Z,92.64
2018-06-23T06:34:51.090Z,92.74
2018-06-23T06:35:51.086Z,93.21
2018-06-23T06:36:51.079Z,93.88
2018-06-23T06:37:51.074Z,93.98
2018-06-23T06:38:51.076Z,93.79
2018-06-23T06:39:51.072Z,93.79
2018-06-23T06:40:51.069Z,94.07
2018-06-23T06:41:51.066Z,94.65
2018-06-23T06:42:51.057Z,94.93
2018-06-23T06:43:51.053Z,95.79
2018-06-23T06:44:51.059Z,96.27
2018-06-23T06:45:51.046Z,97.04
2018-06-23T06:46:51.049Z,96.66
2018-06-23T06:47:51.043Z,96.08
2018-06-23T06:48:51.040Z,96.37
2018-06-23T06:49:51.037Z,96.66
2018-06-23T06:50:51.042Z,96.51
2018-06-23T06:51:51.023Z,95.89
2018-06-23T06:52:51.024Z,96.47
2018-06-23T06:53:51.022Z,96.27
2018-06-23T06:54:51.013Z,95.89
2018-06-23T06:55:51.009Z,96.47
2018-06-23T06:56:51.010Z,96.27
2018-06-23T06:57:51.002Z,96.08
2018-06-23T06:58:51.004Z,96.08
2018-06-23T06:59:51.000Z,96.37
2018-06-23T07:00:50.996Z,96.42
2018-06-23T07:01:50.997Z,96.42
2018-06-23T07:02:50.984Z,95.84
2018-06-23T07:03:50.980Z,95.94
2018-06-23T07:04:50.976Z,94.12
2018-06-23T07:05:50.973Z,93.49
2018-06-23T07:06:50.975Z,92.30
2018-06-23T07:07:50.972Z,91.72
2018-06-23T07:08:50.991Z,90.61
2018-06-23T07:09:50.963Z,89.56
2018-06-23T07:10:50.966Z,88.26
2018-06-23T07:11:50.964Z,87.54
2018-06-23T07:12:50.962Z,86.72
2018-06-23T07:13:50.960Z,85.71
2018-06-23T07:14:50.954Z,83.83
2018-06-23T07:15:50.953Z,83.42
2018-06-23T07:16:50.951Z,80.96
2018-06-23T07:17:50.952Z,79.02
2018-06-23T07:18:50.957Z,76.84
2018-06-23T07:19:50.954Z,74.12
2018-06-23T07:20:50.956Z,71.64
2018-06-23T07:21:50.956Z,70.06
2018-06-23T07:22:50.952Z,69.68
2018-06-23T07:23:51.125Z,69.55
2018-06-23T07:24:50.959Z,69.84
2018-06-23T07:25:50.962Z,69.74
2018-06-23T07:26:50.978Z,70.00
2018-06-23T07:27:50.961Z,69.90
2018-06-23T07:28:50.964Z,71.12
2018-06-23T07:29:50.967Z,71.60
2018-06-23T07:30:51.062Z,70.31
2018-06-23T07:31:50.976Z,70.21
2018-06-23T07:32:50.978Z,72.07
2018-06-23T07:33:50.982Z,72.45
2018-06-23T07:34:51.205Z,73.00
2018-06-23T07:35:50.980Z,73.54
2018-06-23T07:36:50.981Z,74.40
2018-06-23T07:37:50.986Z,74.79
2018-06-23T07:38:50.990Z,75.17
2018-06-23T07:39:50.992Z,75.75
2018-06-23T07:40:50.990Z,76.32
2018-06-23T07:41:50.991Z,76.48
2018-06-23T07:42:50.998Z,77.15
2018-06-23T07:43:50.998Z,77.73
2018-06-23T07:44:51.000Z,77.15
2018-06-23T07:45:51.002Z,77.58
2018-06-23T07:46:50.998Z,77.33
2018-06-23T07:47:50.998Z,76.75
2018-06-23T07:48:51.001Z,75.73
2018-06-23T07:49:51.002Z,75.15
2018-06-23T07:50:51.008Z,74.61
2018-06-23T07:51:51.009Z,74.22
2018-06-23T07:52:51.011Z,73.30
2018-06-23T07:53:51.013Z,73.14
2018-06-23T07:54:51.010Z,71.50
2018-06-23T07:55:51.014Z,70.54
2018-06-23T07:56:51.019Z,69.61
2018-06-23T07:57:51.020Z,68.87
2018-06-23T07:58:51.019Z,67.65
2018-06-23T07:59:51.022Z,67.07
2018-06-23T08:00:51.023Z,66.91
2018-06-23T08:01:51.026Z,66.24
2018-06-23T08:02:51.033Z,66.30
2018-06-23T08:03:51.035Z,66.01
2018-06-23T08:04:51.039Z,65.66
2018-06-23T08:05:51.041Z,66.97
2018-06-23T08:06:51.040Z,67.55
2018-06-23T08:07:51.042Z,68.52
2018-06-23T08:08:51.045Z,69.13
2018-06-23T08:09:51.049Z,67.81
2018-06-23T08:10:51.057Z,67.94
2018-06-23T08:11:51.275Z,66.98
2018-06-23T08:12:51.057Z,64.95
2018-06-23T08:13:51.061Z,61.98
2018-06-23T08:14:51.070Z,59.18
2018-06-23T08:15:51.073Z,55.75
2018-06-23T08:16:51.083Z,56.11
2018-06-23T08:17:51.081Z,55.18
2018-06-23T08:18:51.082Z,56.03
2018-06-23T08:19:51.086Z,55.71
2018-06-23T08:20:51.092Z,56.26
2018-06-23T08:21:51.098Z,57.82
2018-06-23T08:22:51.108Z,58.86
2018-06-23T08:23:51.119Z,59.70
2018-06-23T08:24:51.135Z,60.67
2018-06-23T08:25:51.124Z,61.89
2018-06-23T08:26:51.124Z,62.63
2018-06-23T08:27:51.128Z,63.85
2018-06-23T08:28:51.138Z,65.05
2018-06-23T08:29:51.145Z,66.88
2018-06-23T08:30:51.143Z,68.04
2018-06-23T08:31:51.173Z,68.58
2018-06-23T08:32:51.151Z,68.74
2018-06-23T08:33:51.153Z,69.51
2018-06-23T08:34:51.164Z,70.56
2018-06-23T08:35:51.169Z,71.40
2018-06-23T08:36:51.168Z,72.45
2018-06-23T08:37:51.180Z,73.19
2018-06-23T08:38:51.171Z,73.57
2018-06-23T08:39:51.186Z,73.77
2018-06-23T08:40:51.174Z,74.34
2018-06-23T08:41:51.176Z,74.82
2018-06-23T08:42:51.184Z,74.82
2018-06-23T08:43:51.184Z,75.49
2018-06-23T08:44:51.181Z,74.54
2018-06-23T08:45:51.184Z,74.73
2018-06-23T08:46:51.193Z,74.02
2018-06-23T08:47:51.191Z,74.05
2018-06-23T08:48:51.194Z,72.79
2018-06-23T08:49:51.194Z,68.23
2018-06-23T08:50:51.192Z,66.78
2018-06-23T08:51:51.194Z,65.78
2018-06-23T08:52:51.196Z,65.40
2018-06-23T08:53:51.198Z,65.37
2018-06-23T08:54:51.208Z,64.47
2018-06-23T08:55:51.207Z,64.86
2018-06-23T08:56:51.223Z,65.40
2018-06-23T08:57:51.213Z,65.40
2018-06-23T08:58:51.212Z,66.07
2018-06-23T08:59:51.213Z,66.85
2018-06-23T09:00:51.222Z,67.29
2018-06-23T09:01:51.275Z,67.97
2018-06-23T09:02:51.300Z,68.16
2018-06-23T09:03:51.223Z,68.70
2018-06-23T09:04:51.224Z,69.47
2018-06-23T09:05:51.227Z,70.68
2018-06-23T09:06:51.236Z,71.75
2018-06-23T09:07:51.235Z,72.67
2018-06-23T09:08:51.237Z,73.25
2018-06-23T09:09:51.240Z,74.30
2018-06-23T09:10:51.235Z,74.37
2018-06-23T09:11:51.238Z,74.75
2018-06-23T09:12:51.237Z,75.71
2018-06-23T09:13:51.239Z,76.15
2018-06-23T09:14:51.245Z,76.54
2018-06-23T09:15:51.243Z,77.69
2018-06-23T09:16:51.256Z,77.59
2018-06-23T09:17:51.241Z,78.21
2018-06-23T09:18:51.247Z,78.02
2018-06-23T09:19:51.247Z,76.84
2018-06-23T09:20:51.248Z,75.82
2018-06-23T09:21:51.249Z,74.86
2018-06-23T09:22:51.244Z,74.71
2018-06-23T09:23:51.245Z,74.32
2018-06-23T09:24:51.251Z,73.65
2018-06-23T09:25:51.296Z,72.49
2018-06-23T09:26:51.254Z,72.11
2018-06-23T09:27:51.255Z,72.88
2018-06-23T09:28:51.255Z,72.59
2018-06-23T09:29:51.257Z,72.26
2018-06-23T09:30:51.255Z,72.65
2018-06-23T09:31:51.253Z,73.22
2018-06-23T09:32:51.259Z,74.09
2018-06-23T09:33:51.261Z,74.15
2018-06-23T09:34:51.258Z,73.67
2018-06-23T09:35:51.258Z,73.96
2018-06-23T09:36:51.260Z,74.02
2018-06-23T09:37:51.261Z,74.69
2018-06-23T09:38:51.268Z,74.98
2018-06-23T09:39:51.273Z,75.65
2018-06-23T09:40:51.274Z,75.84
2018-06-23T09:41:51.271Z,76.14
2018-06-23T09:42:51.269Z,76.32
2018-06-23T09:43:51.266Z,76.19
2018-06-23T09:44:51.267Z,76.39
2018-06-23T09:45:51.274Z,76.39
2018-06-23T09:46:51.273Z,76.67
2018-06-23T09:47:51.274Z,77.15
2018-06-23T09:48:51.270Z,77.53
2018-06-23T09:49:51.275Z,78.30
2018-06-23T09:50:51.274Z,78.30
2018-06-23T09:51:51.277Z,78.30
2018-06-23T09:52:51.280Z,78.21
2018-06-23T09:53:51.277Z,78.50
2018-06-23T09:54:51.271Z,78.50
2018-06-23T09:55:51.288Z,78.69
2018-06-23T09:56:51.271Z,78.50
2018-06-23T09:57:51.272Z,78.88
2018-06-23T09:58:51.278Z,78.98
2018-06-23T09:59:51.279Z,79.07
2018-06-23T10:00:51.278Z,79.17
2018-06-23T10:01:51.276Z,79.17
2018-06-23T10:02:51.274Z,78.98
2018-06-23T10:03:51.270Z,78.88
2018-06-23T10:04:51.275Z,78.69
2018-06-23T10:05:51.276Z,78.78
2018-06-23T10:06:51.272Z,78.98
2018-06-23T10:07:51.270Z,79.46
2018-06-23T10:08:51.270Z,78.83
2018-06-23T10:09:51.274Z,79.21
2018-06-23T10:10:51.274Z,78.63
2018-06-23T10:11:51.276Z,77.58
2018-06-23T10:12:51.274Z,77.23
2018-06-23T10:13:51.275Z,77.23
2018-06-23T10:14:51.270Z,77.33
2018-06-23T10:15:51.270Z,76.36
2018-06-23T10:16:51.271Z,75.40
2018-06-23T10:17:51.271Z,75.46
2018-06-23T10:18:51.277Z,75.17
2018-06-23T10:19:51.277Z,75.56
2018-06-23T10:20:51.272Z,76.36
2018-06-23T10:21:51.274Z,75.84
2018-06-23T10:22:51.279Z,76.23
2018-06-23T10:23:51.280Z,75.94
2018-06-23T10:24:51.281Z,75.49
2018-06-23T10:25:51.279Z,75.27
2018-06-23T10:26:51.276Z,75.37
2018-06-23T10:27:51.279Z,75.17
2018-06-23T10:28:51.279Z,75.27
2018-06-23T10:29:51.277Z,76.14
2018-06-23T10:30:51.282Z,76.56
2018-06-23T10:31:51.282Z,76.90
2018-06-23T10:32:51.285Z,77.48
2018-06-23T10:33:51.285Z,77.29
2018-06-23T10:34:51.281Z,77.76
2018-06-23T10:35:51.281Z,77.86
2018-06-23T10:36:51.287Z,77.90
2018-06-23T10:37:51.326Z,78.38
2018-06-23T10:38:51.282Z,77.23
2018-06-23T10:39:51.284Z,76.17
2018-06-23T10:40:51.283Z,76.46
2018-06-23T10:41:51.285Z,76.26
2018-06-23T10:42:51.288Z,75.92
2018-06-23T10:43:51.288Z,75.82
2018-06-23T10:44:51.295Z,74.73
2018-06-23T10:45:51.290Z,74.76
2018-06-23T10:46:51.287Z,74.48
2018-06-23T10:47:51.287Z,74.48
2018-06-23T10:48:51.290Z,74.22
2018-06-23T10:49:51.290Z,73.55
2018-06-23T10:50:51.296Z,72.78
2018-06-23T10:51:51.295Z,72.30
2018-06-23T10:52:51.291Z,72.39
2018-06-23T10:53:51.293Z,72.30
2018-06-23T10:54:51.299Z,72.20
2018-06-23T10:55:51.298Z,72.39
2018-06-23T10:56:51.300Z,72.01
2018-06-23T10:57:51.331Z,71.81
2018-06-23T10:58:51.298Z,71.04
2018-06-23T10:59:51.299Z,71.72
2018-06-23T11:00:51.300Z,72.11
2018-06-23T11:01:51.302Z,71.81
2018-06-23T11:02:51.308Z,71.91
2018-06-23T11:03:51.309Z,72.78
2018-06-23T11:04:51.402Z,73.36
2018-06-23T11:05:51.313Z,73.16
2018-06-23T11:06:51.309Z,73.26
2018-06-23T11:07:51.310Z,73.55
2018-06-23T11:08:51.316Z,73.65
2018-06-23T11:09:51.317Z,73.90
2018-06-23T11:10:51.315Z,73.80
2018-06-23T11:11:51.315Z,73.90
2018-06-23T11:12:51.315Z,74.09
2018-06-23T11:13:51.315Z,74.38
2018-06-23T11:14:51.321Z,73.99
2018-06-23T11:15:51.322Z,74.29
2018-06-23T11:16:51.322Z,74.29
2018-06-23T11:17:51.325Z,74.54
2018-06-23T11:18:51.320Z,74.34
2018-06-23T11:19:51.321Z,74.34
2018-06-23T11:20:51.321Z,74.63
2018-06-23T11:21:51.322Z,75.79
2018-06-23T11:22:51.327Z,75.40
2018-06-23T11:23:51.327Z,75.98
2018-06-23T11:24:51.323Z,76.17
2018-06-23T11:25:51.325Z,76.26
2018-06-23T11:26:51.329Z,76.04
2018-06-23T11:27:51.329Z,76.23
2018-06-23T11:28:51.330Z,76.36
2018-06-23T11:29:51.338Z,75.98
2018-06-23T11:30:51.329Z,76.36
2018-06-23T11:31:51.327Z,76.46
2018-06-23T11:32:51.331Z,76.94
2018-06-23T11:33:51.330Z,77.09
2018-06-23T11:34:51.338Z,77.42
2018-06-23T11:35:51.335Z,77.71
2018-06-23T11:36:51.334Z,77.58
2018-06-23T11:37:51.337Z,77.29
2018-06-23T11:38:51.331Z,77.48
2018-06-23T11:39:51.331Z,77.76
2018-06-23T11:40:51.336Z,77.67
2018-06-23T11:41:51.341Z,77.76
2018-06-23T11:42:51.333Z,78.83
2018-06-23T11:43:51.337Z,79.11
2018-06-23T11:44:51.335Z,79.35
2018-06-23T11:45:51.335Z,79.92
2018-06-23T11:46:51.343Z,79.15
2018-06-23T11:47:51.344Z,78.48
2018-06-23T11:48:51.341Z,77.61
2018-06-23T11:49:51.341Z,76.78
2018-06-23T11:50:51.336Z,76.78
2018-06-23T11:51:51.336Z,76.69
2018-06-23T11:52:51.337Z,76.40
2018-06-23T11:53:51.336Z,76.11
2018-06-23T11:54:51.342Z,75.92
2018-06-23T11:55:51.345Z,76.11
2018-06-23T11:56:51.359Z,76.01
2018-06-23T11:57:51.339Z,76.44
2018-06-23T11:58:51.343Z,75.76
2018-06-23T11:59:51.342Z,76.28
2018-06-23T12:00:51.344Z,76.03
2018-06-23T12:01:51.363Z,74.88
2018-06-23T12:02:51.341Z,73.62
2018-06-23T12:03:51.342Z,72.99
2018-06-23T12:04:51.342Z,72.31
2018-06-23T12:05:51.345Z,72.60
2018-06-23T12:06:51.351Z,71.83
2018-06-23T12:07:51.350Z,71.86
2018-06-23T12:08:51.351Z,71.03
2018-06-23T12:09:51.354Z,70.06
2018-06-23T12:10:51.352Z,69.42
2018-06-23T12:11:51.356Z,68.84
2018-06-23T12:12:51.359Z,68.68
2018-06-23T12:13:51.362Z,68.40
2018-06-23T12:14:51.385Z,67.52
2018-06-23T12:15:51.361Z,67.33
2018-06-23T12:16:51.363Z,67.33
2018-06-23T12:17:51.365Z,67.17
2018-06-23T12:18:51.373Z,67.08
2018-06-23T12:19:51.376Z,66.20
2018-06-23T12:20:51.377Z,65.72
2018-06-23T12:21:51.381Z,65.43
2018-06-23T12:22:51.379Z,64.89
2018-06-23T12:23:51.385Z,65.17
2018-06-23T12:24:51.384Z,64.66
2018-06-23T12:25:51.388Z,64.37
2018-06-23T12:26:51.397Z,64.85
2018-06-23T12:27:51.399Z,63.98
2018-06-23T12:28:51.398Z,64.59
2018-06-23T12:29:51.403Z,64.50
2018-06-23T12:30:51.409Z,63.82
2018-06-23T12:31:51.412Z,64.21
2018-06-23T12:32:51.415Z,63.53
2018-06-23T12:33:51.419Z,63.82
2018-06-23T12:34:51.421Z,64.62
2018-06-23T12:35:51.422Z,64.82
2018-06-23T12:36:51.429Z,64.92
2018-06-23T12:37:51.433Z,64.14
2018-06-23T12:38:51.438Z,63.76
2018-06-23T12:39:51.440Z,63.66
2018-06-23T12:40:51.446Z,63.18
2018-06-23T12:41:51.463Z,63.56
2018-06-23T12:42:51.448Z,62.69
2018-06-23T12:43:51.452Z,62.24
2018-06-23T12:44:51.460Z,62.21
2018-06-23T12:45:51.463Z,62.11
2018-06-23T12:46:51.464Z,62.76
2018-06-23T12:47:51.466Z,62.50
2018-06-23T12:48:51.473Z,62.66
2018-06-23T12:49:51.474Z,61.98
2018-06-23T12:50:51.483Z,61.82
2018-06-23T12:51:51.485Z,61.92
2018-06-23T12:52:51.491Z,61.92